Time;durP1;ratioP1;P1;durP2;ratioP2;P2;SDS_P1;SDS_P2;PMS_P1;PMS_P2;Temp;Humidity;BMP_temperature;BMP_pressure;BME280_temperature;BME280_humidity;BME280_pressure;Samples;Min_cycle;Max_cycle;Signal;HPM_P1;HPM_P2
2021/04/21 00:02:14;;;;;;;1.40;1.23;;;6.90;99.90;;;;;;4987526;28;20684;-79
2021/04/21 00:04:40;;;;;;;0.87;0.87;;;6.90;99.90;;;;;;4986159;28;20180;-80
2021/04/21 00:07:06;;;;;;;1.63;1.27;;;6.80;99.90;;;;;;4987842;28;20212;-79
2021/04/21 00:09:32;;;;;;;1.60;1.30;;;6.80;99.90;;;;;;4988174;28;20185;-78
2021/04/21 00:11:59;;;;;;;1.57;1.10;;;6.70;99.90;;;;;;4987503;28;20204;-79
2021/04/21 00:14:25;;;;;;;1.40;1.13;;;6.60;99.90;;;;;;4987232;28;20176;-79
2021/04/21 00:16:54;;;;;;;1.97;1.00;;;6.50;99.90;;;;;;4987192;28;20180;-78
2021/04/21 00:19:22;;;;;;;1.73;1.27;;;6.60;99.90;;;;;;4996126;28;20291;-77
2021/04/21 00:21:49;;;;;;;2.03;1.43;;;6.70;99.90;;;;;;5002877;28;20184;-79
2021/04/21 00:24:16;;;;;;;1.93;1.30;;;6.60;99.90;;;;;;4989965;28;20188;-81
2021/04/21 00:26:46;;;;;;;0.73;0.70;;;6.50;99.90;;;;;;4987302;28;20810;-82
2021/04/21 00:29:14;;;;;;;1.70;1.50;;;6.60;99.90;;;;;;4988472;28;20582;-82
2021/04/21 00:31:42;;;;;;;1.93;1.53;;;6.50;99.90;;;;;;4986386;28;20580;-82
2021/04/21 00:34:09;;;;;;;1.70;0.73;;;6.50;99.90;;;;;;4986584;28;20180;-82
2021/04/21 00:36:37;;;;;;;2.70;1.50;;;6.50;99.90;;;;;;4986716;28;20195;-79
2021/04/21 00:39:04;;;;;;;1.53;1.30;;;6.40;99.90;;;;;;4988497;28;20223;-80
2021/04/21 00:41:54;;;;;;;1.03;0.90;;;6.30;99.90;;;;;;4987659;28;20200;-80
2021/04/21 00:44:40;;;;;;;0.90;0.80;;;6.20;99.90;;;;;;4990969;28;20737;-81
2021/04/21 00:47:10;;;;;;;1.43;0.83;;;6.10;99.90;;;;;;4990139;28;20291;-81
2021/04/21 00:50:05;;;;;;;1.70;1.20;;;6.00;99.90;;;;;;4990924;28;20180;-79
2021/04/21 00:52:38;;;;;;;2.43;1.13;;;5.90;99.90;;;;;;5005798;28;20204;-82
2021/04/21 00:55:10;;;;;;;0.87;0.70;;;5.70;99.90;;;;;;4989022;28;20177;-81
2021/04/21 00:57:47;;;;;;;3.23;1.63;;;5.80;99.90;;;;;;4990762;28;20176;-78
2021/04/21 01:00:19;;;;;;;1.40;1.13;;;5.70;99.90;;;;;;4988991;28;20676;-80
2021/04/21 01:03:16;;;;;;;0.87;0.70;;;5.70;99.90;;;;;;4991065;28;20176;-81
2021/04/21 01:05:57;;;;;;;0.73;0.63;;;5.60;99.90;;;;;;4990081;28;20188;-80
2021/04/21 01:08:29;;;;;;;1.63;1.20;;;5.60;99.90;;;;;;4990787;28;20191;-79
2021/04/21 01:10:59;;;;;;;0.93;0.93;;;5.80;99.90;;;;;;4990611;28;20283;-80
2021/04/21 01:13:29;;;;;;;1.40;1.23;;;5.90;99.90;;;;;;4990725;28;20217;-80
2021/04/21 01:15:56;;;;;;;0.83;0.80;;;5.80;99.90;;;;;;4988609;28;20185;-80
2021/04/21 01:18:24;;;;;;;1.80;1.57;;;5.80;99.90;;;;;;4990723;28;20187;-82
2021/04/21 01:21:05;;;;;;;1.87;1.30;;;5.80;99.90;;;;;;4990348;28;20196;-82
2021/04/21 01:23:58;;;;;;;0.80;0.80;;;5.70;99.90;;;;;;4988943;28;20193;-79
2021/04/21 01:26:42;;;;;;;0.83;0.83;;;5.70;99.90;;;;;;4989730;28;20223;-80
2021/04/21 01:29:09;;;;;;;1.10;0.80;;;5.70;99.90;;;;;;4990181;28;20662;-78
2021/04/21 01:31:37;;;;;;;1.40;1.00;;;5.70;99.90;;;;;;4989629;28;20315;-80
2021/04/21 01:34:06;;;;;;;1.00;0.70;;;5.60;99.90;;;;;;4989945;28;20208;-79
2021/04/21 01:36:33;;;;;;;1.10;1.00;;;5.50;99.90;;;;;;4989857;28;20195;-81
2021/04/21 01:39:03;;;;;;;1.37;1.00;;;5.40;99.90;;;;;;4990173;28;20705;-81
2021/04/21 01:41:33;;;;;;;1.47;1.03;;;5.40;99.90;;;;;;4989375;28;20200;-82
2021/04/21 01:44:40;;;;;;;1.63;1.10;;;5.40;99.90;;;;;;4990258;28;20570;-79
2021/04/21 01:47:09;;;;;;;0.93;0.90;;;5.30;99.90;;;;;;4989756;28;20188;-80
2021/04/21 01:49:35;;;;;;;1.17;0.90;;;5.30;99.90;;;;;;4988977;28;20184;-80
2021/04/21 01:52:17;;;;;;;1.47;1.00;;;5.30;99.90;;;;;;4989430;28;20836;-81
2021/04/21 01:54:46;;;;;;;1.50;1.10;;;5.20;99.90;;;;;;4988394;28;20238;-80
2021/04/21 01:57:28;;;;;;;1.80;1.10;;;5.10;99.90;;;;;;4989766;28;20193;-82
2021/04/21 02:00:05;;;;;;;1.93;1.07;;;5.10;99.90;;;;;;5003508;28;20208;-79
2021/04/21 02:02:37;;;;;;;5.60;1.13;;;5.00;99.90;;;;;;4986092;28;20207;-79
2021/04/21 02:05:30;;;;;;;1.37;0.80;;;5.00;99.90;;;;;;4987280;28;20184;-77
2021/04/21 02:08:14;;;;;;;1.97;1.10;;;4.90;99.90;;;;;;4985936;28;20189;-80
2021/04/21 02:10:57;;;;;;;1.63;1.10;;;4.90;99.90;;;;;;4986667;28;20228;-79
2021/04/21 02:13:35;;;;;;;1.30;1.20;;;4.90;99.90;;;;;;4987251;28;20218;-81
2021/04/21 02:16:16;;;;;;;2.00;1.40;;;4.90;99.90;;;;;;4988321;28;20191;-82
2021/04/21 02:18:48;;;;;;;1.47;0.80;;;4.80;99.90;;;;;;4989510;28;20187;-79
2021/04/21 02:21:14;;;;;;;1.30;1.20;;;4.80;99.90;;;;;;4986826;28;20248;-79
2021/04/21 02:23:53;;;;;;;2.27;1.07;;;4.70;99.90;;;;;;4988699;28;20271;-82
2021/04/21 02:26:45;;;;;;;2.43;1.30;;;4.60;99.90;;;;;;4987815;28;20179;-79
2021/04/21 02:29:35;;;;;;;1.10;1.00;;;4.60;99.90;;;;;;5003584;28;20291;-78
2021/04/21 02:32:40;;;;;;;1.90;1.40;;;4.60;99.90;;;;;;4987008;28;20180;-80
2021/04/21 02:35:19;;;;;;;1.03;0.87;;;4.60;99.90;;;;;;4975519;28;20192;-79
2021/04/21 02:37:54;;;;;;;1.73;1.27;;;4.50;99.90;;;;;;5003815;28;20231;-79
2021/04/21 02:40:43;;;;;;;1.67;1.47;;;4.60;99.90;;;;;;4988116;28;20214;-80
2021/04/21 02:43:21;;;;;;;1.40;1.13;;;4.50;99.90;;;;;;4989148;28;20267;-80
2021/04/21 02:46:09;;;;;;;2.17;1.47;;;4.60;99.90;;;;;;4986394;28;20556;-77
2021/04/21 02:48:44;;;;;;;1.90;1.70;;;4.60;99.90;;;;;;4988313;28;20180;-77
2021/04/21 02:51:24;;;;;;;3.40;2.07;;;4.60;99.90;;;;;;4987704;28;20311;-77
2021/04/21 02:54:02;;;;;;;1.50;1.10;;;4.60;99.90;;;;;;4988232;28;20688;-79
2021/04/21 02:56:46;;;;;;;2.03;1.40;;;4.60;99.90;;;;;;4987653;28;20263;-76
2021/04/21 02:59:47;;;;;;;1.30;0.83;;;4.50;99.90;;;;;;4988259;28;20222;-78
2021/04/21 03:02:36;;;;;;;4.40;1.87;;;4.50;99.90;;;;;;4987978;28;20184;-79
2021/04/21 03:05:31;;;;;;;1.13;1.00;;;4.40;99.90;;;;;;4986692;28;20951;-79
2021/04/21 03:08:08;;;;;;;2.27;1.30;;;4.40;99.90;;;;;;5000273;28;20203;-80
2021/04/21 03:11:03;;;;;;;1.10;1.00;;;4.50;99.90;;;;;;4986835;28;20298;-78
2021/04/21 03:13:33;;;;;;;0.77;0.77;;;4.40;99.90;;;;;;4976176;28;20246;-77
2021/04/21 03:16:07;;;;;;;1.90;0.93;;;4.40;99.90;;;;;;4985796;28;20188;-77
2021/04/21 03:18:34;;;;;;;1.37;1.07;;;4.40;99.90;;;;;;4988025;28;20183;-79
2021/04/21 03:21:28;;;;;;;1.37;1.10;;;4.20;99.90;;;;;;4986025;28;20768;-80
2021/04/21 03:24:13;;;;;;;1.90;1.40;;;4.20;99.90;;;;;;4987562;28;20195;-77
2021/04/21 03:26:43;;;;;;;2.27;1.13;;;4.10;99.90;;;;;;4987973;28;20209;-78
2021/04/21 03:29:15;;;;;;;1.93;1.30;;;4.00;99.90;;;;;;4987770;28;20207;-78
2021/04/21 03:31:43;;;;;;;1.73;0.90;;;4.00;99.90;;;;;;4987438;28;21166;-80
2021/04/21 03:34:12;;;;;;;1.90;0.93;;;4.00;99.90;;;;;;4986178;28;20217;-80
2021/04/21 03:36:39;;;;;;;1.73;1.63;;;4.00;99.90;;;;;;4987169;28;20184;-77
2021/04/21 03:39:06;;;;;;;1.07;0.97;;;4.00;99.90;;;;;;4986284;28;20199;-78
2021/04/21 03:41:31;;;;;;;1.30;0.87;;;4.00;99.90;;;;;;4987466;28;20208;-79
2021/04/21 03:43:57;;;;;;;1.20;0.80;;;4.00;99.90;;;;;;4986425;28;20196;-77
2021/04/21 03:46:24;;;;;;;1.60;0.80;;;3.90;99.90;;;;;;4985594;28;20196;-80
2021/04/21 03:48:50;;;;;;;0.93;0.83;;;4.00;99.90;;;;;;4986140;28;20287;-78
2021/04/21 03:51:17;;;;;;;0.63;0.63;;;3.90;99.90;;;;;;4987111;28;20207;-81
2021/04/21 03:53:43;;;;;;;1.07;0.97;;;3.90;99.90;;;;;;4986165;28;20220;-79
2021/04/21 03:56:16;;;;;;;1.50;0.83;;;3.80;99.90;;;;;;4986787;28;20219;-79
2021/04/21 03:58:45;;;;;;;1.10;1.00;;;3.90;99.90;;;;;;4986470;28;20216;-77
2021/04/21 04:01:24;;;;;;;0.80;0.73;;;3.80;99.90;;;;;;4987145;28;20618;-78
2021/04/21 04:03:55;;;;;;;2.03;1.20;;;3.80;99.90;;;;;;4987178;28;20184;-78
2021/04/21 04:06:43;;;;;;;1.10;1.00;;;3.70;99.90;;;;;;5001410;28;20187;-77
2021/04/21 04:09:11;;;;;;;1.00;0.90;;;3.70;99.90;;;;;;4986806;28;20263;-78
2021/04/21 04:11:46;;;;;;;1.40;0.90;;;3.70;99.90;;;;;;4985083;28;20278;-79
2021/04/21 04:14:22;;;;;;;1.37;1.00;;;3.70;99.90;;;;;;4986783;28;20263;-78
2021/04/21 04:16:54;;;;;;;2.00;1.10;;;3.60;99.90;;;;;;4986602;28;20208;-78
2021/04/21 04:19:20;;;;;;;0.93;0.80;;;3.60;99.90;;;;;;4990655;28;20226;-78
2021/04/21 04:21:53;;;;;;;2.47;1.17;;;3.70;99.90;;;;;;4989079;28;20208;-77
2021/04/21 04:24:21;;;;;;;2.73;1.07;;;3.70;99.90;;;;;;4989103;28;20567;-77
2021/04/21 04:26:48;;;;;;;1.03;0.93;;;3.80;99.90;;;;;;5005717;28;20196;-80
2021/04/21 04:29:13;;;;;;;1.23;0.87;;;3.80;99.90;;;;;;4988585;28;20271;-78
2021/04/21 04:31:40;;;;;;;1.43;1.13;;;3.80;99.90;;;;;;4989241;28;20241;-79
2021/04/21 04:34:07;;;;;;;1.97;1.53;;;3.80;99.90;;;;;;4990177;28;20682;-77
2021/04/21 04:36:39;;;;;;;1.93;1.13;;;3.90;99.90;;;;;;4990127;28;20650;-78
2021/04/21 04:39:07;;;;;;;4.13;1.77;;;3.80;99.90;;;;;;4989076;28;20718;-78
2021/04/21 04:41:35;;;;;;;1.57;1.40;;;3.80;99.90;;;;;;4989821;28;20211;-78
2021/04/21 04:44:02;;;;;;;1.27;1.07;;;3.90;99.90;;;;;;4990029;28;20270;-78
2021/04/21 04:46:30;;;;;;;1.57;1.30;;;4.10;99.90;;;;;;4988652;28;20207;-77
2021/04/21 04:49:01;;;;;;;0.63;0.63;;;4.20;99.90;;;;;;5004988;28;20184;-79
2021/04/21 04:51:30;;;;;;;2.10;1.67;;;4.30;99.90;;;;;;5004164;28;20672;-77
2021/04/21 04:53:56;;;;;;;1.73;1.40;;;4.50;99.90;;;;;;4988349;28;20215;-77
2021/04/21 04:56:22;;;;;;;1.60;1.33;;;4.60;99.90;;;;;;4989782;28;20254;-80
2021/04/21 04:58:52;;;;;;;1.27;1.03;;;5.00;99.90;;;;;;4988780;28;20192;-78
2021/04/21 05:01:18;;;;;;;1.27;1.03;;;5.60;99.90;;;;;;4987572;28;20213;-78
2021/04/21 05:03:55;;;;;;;2.53;1.27;;;6.20;99.90;;;;;;4987689;28;20192;-79
2021/04/21 05:06:39;;;;;;;1.30;1.20;;;6.90;99.90;;;;;;4989207;28;20243;-80
2021/04/21 05:09:10;;;;;;;1.73;1.30;;;7.70;99.90;;;;;;4996405;28;20719;-79
2021/04/21 05:11:38;;;;;;;1.60;1.40;;;8.20;99.90;;;;;;4987808;28;20933;-79
2021/04/21 05:14:10;;;;;;;1.10;0.97;;;8.50;99.90;;;;;;4989009;28;20265;-80
2021/04/21 05:17:00;;;;;;;1.27;1.17;;;8.80;99.90;;;;;;4987138;28;20184;-79
2021/04/21 05:19:50;;;;;;;1.97;1.30;;;9.20;99.90;;;;;;4987775;28;20654;-79
2021/04/21 05:22:52;;;;;;;2.75;1.63;;;9.60;99.90;;;;;;4988740;28;20206;-80
2021/04/21 05:25:55;;;;;;;2.67;1.95;;;10.00;99.90;;;;;;5003375;28;20945;-79
2021/04/21 05:28:39;;;;;;;3.08;1.67;;;10.50;99.90;;;;;;4986407;28;20250;-79
2021/04/21 05:31:41;;;;;;;2.83;2.33;;;11.00;99.90;;;;;;4988359;28;20212;-79
2021/04/21 05:34:34;;;;;;;5.35;2.13;;;11.50;99.90;;;;;;4988180;28;20215;-79
2021/04/21 05:37:36;;;;;;;2.97;2.35;;;12.10;99.90;;;;;;4988210;28;20180;-79
2021/04/21 05:40:20;;;;;;;3.20;2.15;;;12.20;99.90;;;;;;4995034;28;20203;-79
2021/04/21 05:43:05;;;;;;;2.38;2.17;;;12.40;99.90;;;;;;5003639;28;20906;-79
2021/04/21 05:46:10;;;;;;;2.50;2.22;;;12.70;99.90;;;;;;4987691;28;20271;-78
2021/04/21 05:49:14;;;;;;;2.60;2.40;;;13.10;99.90;;;;;;4986522;28;20188;-79
2021/04/21 05:51:45;;;;;;;4.80;2.58;;;13.30;99.90;;;;;;4985999;28;20211;-79
2021/04/21 05:54:33;;;;;;;5.53;3.72;;;13.40;99.90;;;;;;4988043;28;20287;-79
2021/04/21 05:57:22;;;;;;;7.47;3.60;;;13.60;99.90;;;;;;4987545;28;20207;-79
2021/04/21 06:00:03;;;;;;;6.35;4.03;;;13.70;99.90;;;;;;4988133;28;20209;-79
2021/04/21 06:02:31;;;;;;;5.43;3.83;;;13.80;99.90;;;;;;5002966;28;20176;-79
2021/04/21 06:05:09;;;;;;;5.05;3.20;;;14.00;99.90;;;;;;5003539;28;20246;-79
2021/04/21 06:07:35;;;;;;;5.35;3.05;;;14.20;99.90;;;;;;4986703;28;20192;-79
2021/04/21 06:10:21;;;;;;;5.18;3.33;;;14.40;99.90;;;;;;4986252;28;20224;-79
2021/04/21 06:12:47;;;;;;;3.97;2.40;;;14.50;99.90;;;;;;4986920;28;20223;-79
2021/04/21 06:15:22;;;;;;;5.53;3.25;;;14.80;99.90;;;;;;4993507;28;20551;-78
2021/04/21 06:17:56;;;;;;;7.82;3.60;;;14.60;99.90;;;;;;4983999;28;20172;-78
2021/04/21 06:20:42;;;;;;;7.35;3.85;;;14.60;99.90;;;;;;4982044;28;20208;-77
2021/04/21 06:23:18;;;;;;;3.35;3.00;;;14.60;99.90;;;;;;4980300;28;20187;-79
2021/04/21 06:25:46;;;;;;;3.75;2.78;;;14.60;99.90;;;;;;4984077;28;20745;-79
2021/04/21 06:28:13;;;;;;;3.85;3.40;;;14.40;99.90;;;;;;4986911;28;20682;-78
2021/04/21 06:30:40;;;;;;;4.05;2.72;;;14.60;99.90;;;;;;4983095;28;20286;-79
2021/04/21 06:33:08;;;;;;;4.93;3.53;;;14.50;99.90;;;;;;4987319;28;20295;-79
2021/04/21 06:35:34;;;;;;;4.90;2.95;;;14.30;99.90;;;;;;4985598;28;20558;-79
2021/04/21 06:38:01;;;;;;;4.65;3.10;;;13.80;99.90;;;;;;4986980;28;20189;-79
2021/04/21 06:40:30;;;;;;;5.53;3.22;;;13.00;99.90;;;;;;4986718;28;20212;-78
2021/04/21 06:42:57;;;;;;;3.72;2.83;;;12.30;99.90;;;;;;4986215;28;20184;-78
2021/04/21 06:45:28;;;;;;;6.25;3.35;;;11.90;99.90;;;;;;4984307;28;20215;-77
2021/04/21 06:47:55;;;;;;;6.93;2.60;;;11.60;99.90;;;;;;4986921;28;20188;-82
2021/04/21 06:50:27;;;;;;;5.60;3.20;;;11.50;99.90;;;;;;4988261;28;20212;-79
2021/04/21 06:52:59;;;;;;;4.97;3.10;;;11.40;99.90;;;;;;4986825;28;20232;-78
2021/04/21 06:55:24;;;;;;;6.03;3.10;;;11.40;99.90;;;;;;4987057;28;20254;-80
2021/04/21 06:57:50;;;;;;;4.00;2.70;;;11.10;99.90;;;;;;4987871;28;20271;-80
2021/04/21 07:00:18;;;;;;;6.03;3.67;;;11.10;99.90;;;;;;4994590;28;20721;-80
2021/04/21 07:02:46;;;;;;;5.47;3.13;;;11.10;99.90;;;;;;4987829;28;20275;-80
2021/04/21 07:05:32;;;;;;;4.93;3.30;;;11.10;99.90;;;;;;4987421;28;20271;-79
2021/04/21 07:08:11;;;;;;;3.73;2.70;;;11.20;99.90;;;;;;4990146;28;20190;-78
2021/04/21 07:10:41;;;;;;;5.27;3.53;;;11.30;99.90;;;;;;4987279;28;20227;-79
2021/04/21 07:13:11;;;;;;;3.40;2.83;;;11.40;99.90;;;;;;4987782;28;20208;-81
2021/04/21 07:15:38;;;;;;;4.63;2.87;;;11.40;99.90;;;;;;4986686;28;20184;-79
2021/04/21 07:18:04;;;;;;;4.10;2.93;;;11.70;99.90;;;;;;4986239;28;20565;-80
2021/04/21 07:20:30;;;;;;;3.53;2.60;;;11.80;99.90;;;;;;4987117;28;20791;-79
2021/04/21 07:22:56;;;;;;;3.93;2.90;;;12.00;99.90;;;;;;4986189;28;20200;-78
2021/04/21 07:25:22;;;;;;;3.67;3.20;;;12.10;99.90;;;;;;4985027;28;20280;-79
2021/04/21 07:27:52;;;;;;;4.20;2.97;;;11.90;99.90;;;;;;4990739;28;20431;-78
2021/04/21 07:30:29;;;;;;;4.40;2.57;;;12.00;99.90;;;;;;4988380;28;20239;-80
2021/04/21 07:32:56;;;;;;;6.83;2.97;;;12.20;99.90;;;;;;4989044;28;20207;-79
2021/04/21 07:35:26;;;;;;;4.77;2.77;;;12.30;99.90;;;;;;4986816;28;20180;-81
2021/04/21 07:37:55;;;;;;;2.87;2.17;;;12.40;99.90;;;;;;4987060;28;20199;-80
2021/04/21 07:40:35;;;;;;;3.47;2.33;;;12.40;99.90;;;;;;5001616;28;20203;-79
2021/04/21 07:43:11;;;;;;;3.78;2.90;;;12.60;99.90;;;;;;4986263;28;20222;-80
2021/04/21 07:45:47;;;;;;;4.05;2.65;;;12.70;99.90;;;;;;5000788;28;20793;-77
2021/04/21 07:48:34;;;;;;;3.58;2.47;;;12.80;99.90;;;;;;4986464;28;20298;-80
2021/04/21 07:51:21;;;;;;;2.85;2.10;;;13.10;99.90;;;;;;4985227;28;20555;-79
2021/04/21 07:53:54;;;;;;;2.70;1.90;;;13.10;99.90;;;;;;4990184;28;20215;-79
2021/04/21 07:56:20;;;;;;;2.75;2.05;;;13.30;99.90;;;;;;4990030;28;20242;-78
2021/04/21 07:58:47;;;;;;;3.60;2.15;;;13.30;99.90;;;;;;4991475;28;20188;-78
2021/04/21 08:01:13;;;;;;;4.03;2.40;;;13.50;99.90;;;;;;4991310;28;20210;-78
2021/04/21 08:03:39;;;;;;;4.07;2.50;;;13.60;99.90;;;;;;4988554;28;20669;-79
2021/04/21 08:06:05;;;;;;;4.93;1.92;;;13.80;99.90;;;;;;4995885;28;20180;-79
2021/04/21 08:08:32;;;;;;;4.93;2.45;;;13.80;99.90;;;;;;4996628;28;20199;-78
2021/04/21 08:10:59;;;;;;;3.28;2.35;;;13.80;99.90;;;;;;4988923;28;20223;-78
2021/04/21 08:13:41;;;;;;;2.88;2.08;;;13.90;99.90;;;;;;4989880;28;20705;-78
2021/04/21 08:16:26;;;;;;;3.47;2.17;;;13.90;99.90;;;;;;4990533;28;20693;-78
2021/04/21 08:18:55;;;;;;;3.28;2.67;;;14.10;99.90;;;;;;4991699;28;20194;-77
2021/04/21 08:21:47;;;;;;;2.30;1.65;;;14.30;99.90;;;;;;4988592;28;20207;-78
2021/04/21 08:24:18;;;;;;;3.05;2.58;;;14.50;99.90;;;;;;4992284;28;20592;-79
2021/04/21 08:26:46;;;;;;;5.93;2.38;;;14.40;99.90;;;;;;4992247;28;20192;-79
2021/04/21 08:29:13;;;;;;;2.63;2.15;;;14.40;99.90;;;;;;4992684;28;20271;-78
2021/04/21 08:31:45;;;;;;;4.20;2.30;;;14.50;99.90;;;;;;4991443;28;20284;-80
2021/04/21 08:34:12;;;;;;;2.50;2.13;;;14.40;99.90;;;;;;4989198;28;20611;-78
2021/04/21 08:36:38;;;;;;;2.60;2.10;;;14.40;99.90;;;;;;4986305;28;20223;-79
2021/04/21 08:39:05;;;;;;;2.75;2.50;;;14.50;99.90;;;;;;4986758;28;20177;-78
2021/04/21 08:41:36;;;;;;;2.60;2.20;;;14.60;99.90;;;;;;4987999;28;20200;-80
2021/04/21 08:44:02;;;;;;;2.90;2.42;;;14.90;99.90;;;;;;4986489;28;20271;-81
2021/04/21 08:46:28;;;;;;;3.08;2.38;;;14.80;99.90;;;;;;4986230;28;20212;-78
2021/04/21 08:48:54;;;;;;;3.45;2.65;;;14.80;99.90;;;;;;4986580;28;20184;-78
2021/04/21 08:51:21;;;;;;;4.35;2.65;;;14.80;99.90;;;;;;4986481;28;20211;-80
2021/04/21 08:53:51;;;;;;;4.78;3.17;;;15.00;99.90;;;;;;4986353;28;20208;-81
2021/04/21 08:56:19;;;;;;;3.55;2.83;;;15.30;99.90;;;;;;4986322;28;20638;-79
2021/04/21 08:58:47;;;;;;;3.83;2.55;;;15.30;99.90;;;;;;4986134;28;20284;-79
2021/04/21 09:01:13;;;;;;;4.65;3.22;;;15.30;99.90;;;;;;4985038;28;20296;-78
2021/04/21 09:03:44;;;;;;;3.95;2.63;;;15.40;99.90;;;;;;4986751;28;20942;-78
2021/04/21 09:06:10;;;;;;;5.63;3.45;;;15.50;99.90;;;;;;4987463;28;20183;-79
2021/04/21 09:08:39;;;;;;;4.30;2.78;;;15.60;99.90;;;;;;4986198;28;20729;-79
2021/04/21 09:11:05;;;;;;;3.65;2.60;;;15.90;99.70;;;;;;4988346;28;20693;-80
2021/04/21 09:13:31;;;;;;;4.13;2.83;;;15.60;98.00;;;;;;4988193;28;20211;-79
2021/04/21 09:15:57;;;;;;;3.53;2.85;;;15.50;98.40;;;;;;4986055;28;20210;-77
2021/04/21 09:18:27;;;;;;;3.25;2.67;;;15.70;98.80;;;;;;4984745;28;20185;-76
2021/04/21 09:20:53;;;;;;;3.88;2.60;;;15.90;98.30;;;;;;4985158;28;20238;-78
2021/04/21 09:23:20;;;;;;;3.63;2.80;;;15.90;98.40;;;;;;4984958;28;20191;-77
2021/04/21 09:25:54;;;;;;;5.10;2.72;;;15.90;96.70;;;;;;4986888;28;20184;-79
2021/04/21 09:28:22;;;;;;;4.20;3.38;;;16.00;96.80;;;;;;4984306;28;20192;-77
2021/04/21 09:30:54;;;;;;;4.43;2.70;;;16.10;95.70;;;;;;4985034;28;20238;-76
2021/04/21 09:33:20;;;;;;;3.17;2.65;;;16.10;95.60;;;;;;4985568;28;20273;-77
2021/04/21 09:35:47;;;;;;;4.82;2.92;;;16.20;95.70;;;;;;4985837;28;20677;-80
2021/04/21 09:38:18;;;;;;;3.90;2.90;;;16.10;95.70;;;;;;4985511;28;20215;-78
2021/04/21 09:40:58;;;;;;;4.50;2.78;;;16.30;95.70;;;;;;4985827;28;20578;-79
2021/04/21 09:43:35;;;;;;;3.58;2.70;;;16.40;94.70;;;;;;4985806;28;20291;-81
2021/04/21 09:46:13;;;;;;;4.25;2.60;;;16.50;95.10;;;;;;4985947;28;20187;-77
2021/04/21 09:48:39;;;;;;;4.05;2.85;;;16.50;93.90;;;;;;4985336;28;20191;-77
2021/04/21 09:51:10;;;;;;;3.05;2.40;;;16.70;93.10;;;;;;4982409;28;20764;-77
2021/04/21 09:53:37;;;;;;;5.75;3.00;;;16.80;92.60;;;;;;4984534;28;20270;-77
2021/04/21 09:56:09;;;;;;;4.45;2.78;;;17.00;92.30;;;;;;4984686;28;20195;-77
2021/04/21 09:58:38;;;;;;;4.45;2.88;;;17.20;92.80;;;;;;4985172;28;20181;-74
2021/04/21 10:01:32;;;;;;;4.15;2.88;;;17.20;92.10;;;;;;4985006;28;20198;-77
2021/04/21 10:04:07;;;;;;;3.53;2.72;;;17.10;92.10;;;;;;4985020;28;20270;-77
2021/04/21 10:06:33;;;;;;;3.15;2.45;;;16.90;91.70;;;;;;4985744;28;20741;-79
2021/04/21 10:08:59;;;;;;;2.97;2.65;;;17.00;90.40;;;;;;4986128;28;20275;-77
2021/04/21 10:11:25;;;;;;;3.78;2.65;;;16.90;88.50;;;;;;4987150;28;20624;-77
2021/04/21 10:13:53;;;;;;;5.88;3.83;;;17.10;90.00;;;;;;4986247;28;20273;-78
2021/04/21 10:16:20;;;;;;;5.47;1.95;;;17.10;90.60;;;;;;4986133;28;20259;-77
2021/04/21 10:18:46;;;;;;;3.85;1.73;;;17.10;86.00;;;;;;4983565;28;20204;-76
2021/04/21 10:21:14;;;;;;;2.20;2.00;;;17.20;79.00;;;;;;4981917;28;21215;-77
2021/04/21 10:23:40;;;;;;;3.53;1.70;;;17.10;77.60;;;;;;4986246;28;21030;-77
2021/04/21 10:26:11;;;;;;;3.08;2.08;;;17.00;77.20;;;;;;4984176;28;20331;-77
2021/04/21 10:28:39;;;;;;;2.38;1.60;;;16.80;77.00;;;;;;4985736;28;20696;-77
2021/04/21 10:31:10;;;;;;;5.20;1.77;;;16.70;76.40;;;;;;4994230;28;20210;-77
2021/04/21 10:33:36;;;;;;;2.50;1.88;;;16.80;73.30;;;;;;4986237;28;20238;-77
2021/04/21 10:36:06;;;;;;;2.47;2.10;;;17.00;79.00;;;;;;4986234;28;20665;-78
2021/04/21 10:38:32;;;;;;;2.72;1.80;;;17.20;75.80;;;;;;4984665;28;20176;-77
2021/04/21 10:41:35;;;;;;;2.60;2.00;;;17.40;75.10;;;;;;4986163;28;20204;-78
2021/04/21 10:44:16;;;;;;;2.88;1.83;;;17.60;74.20;;;;;;4980706;28;20673;-78
2021/04/21 10:47:02;;;;;;;2.20;1.45;;;17.50;73.70;;;;;;4986580;28;20184;-78
2021/04/21 10:49:35;;;;;;;1.98;1.63;;;17.50;71.40;;;;;;4984364;28;20195;-77
2021/04/21 10:52:12;;;;;;;1.88;1.52;;;17.50;72.00;;;;;;4985347;28;20238;-78
2021/04/21 10:54:38;;;;;;;2.80;1.67;;;17.50;68.40;;;;;;4986339;28;20176;-76
2021/04/21 10:57:37;;;;;;;2.22;1.63;;;17.50;68.70;;;;;;4987823;28;20180;-77
2021/04/21 11:00:25;;;;;;;2.13;1.70;;;17.50;67.00;;;;;;4950026;28;20220;-77
2021/04/21 11:03:02;;;;;;;2.53;1.30;;;17.50;66.50;;;;;;5000500;28;20191;-76
2021/04/21 11:05:40;;;;;;;2.67;1.80;;;17.30;66.90;;;;;;4983432;28;20191;-77
2021/04/21 11:08:10;;;;;;;2.88;1.88;;;17.30;68.10;;;;;;4984968;28;20225;-76
2021/04/21 11:10:53;;;;;;;2.53;1.77;;;17.30;64.30;;;;;;4984873;28;20219;-78
2021/04/21 11:13:36;;;;;;;3.03;1.65;;;17.50;65.50;;;;;;4988086;28;20206;-79
2021/04/21 11:16:05;;;;;;;3.05;1.90;;;17.80;65.40;;;;;;4985726;28;20182;-77
2021/04/21 11:18:35;;;;;;;1.35;1.17;;;17.90;65.90;;;;;;4986098;28;20184;-80
2021/04/21 11:21:10;;;;;;;2.63;1.45;;;17.90;63.90;;;;;;4990049;28;20200;-77
2021/04/21 11:23:53;;;;;;;2.67;1.10;;;17.70;63.10;;;;;;4984723;28;20176;-77
2021/04/21 11:26:28;;;;;;;1.58;1.30;;;17.70;62.70;;;;;;4984112;28;20188;-78
2021/04/21 11:29:02;;;;;;;1.85;1.42;;;17.70;61.80;;;;;;4984030;28;20202;-78
2021/04/21 11:31:43;;;;;;;2.30;1.83;;;17.80;63.20;;;;;;4984012;28;20605;-77
2021/04/21 11:34:38;;;;;;;4.97;1.00;;;18.00;60.40;;;;;;4984692;28;20230;-77
2021/04/21 11:37:08;;;;;;;1.20;0.90;;;17.90;63.50;;;;;;4984289;28;20187;-78
2021/04/21 11:39:43;;;;;;;1.20;1.10;;;18.30;64.20;;;;;;4985382;28;20184;-76
2021/04/21 11:42:22;;;;;;;2.03;1.02;;;18.40;59.70;;;;;;4985888;28;20202;-77
2021/04/21 11:44:47;;;;;;;0.85;0.63;;;18.30;59.80;;;;;;4985732;28;20562;-78
2021/04/21 11:47:32;;;;;;;4.45;1.55;;;18.40;60.60;;;;;;4986731;28;20187;-75
2021/04/21 11:50:06;;;;;;;1.52;1.10;;;18.50;61.80;;;;;;4987065;28;20212;-75
2021/04/21 11:52:53;;;;;;;1.02;1.00;;;18.60;61.10;;;;;;4984015;28;20251;-77
2021/04/21 11:55:21;;;;;;;1.33;0.90;;;18.70;58.50;;;;;;4983853;28;20180;-77
2021/04/21 11:57:52;;;;;;;1.40;0.93;;;18.40;56.70;;;;;;4985075;28;20188;-77
2021/04/21 12:00:22;;;;;;;1.70;0.93;;;18.50;60.40;;;;;;4984394;28;20701;-77
2021/04/21 12:02:48;;;;;;;4.47;1.27;;;18.70;60.40;;;;;;4986930;28;20196;-76
2021/04/21 12:05:19;;;;;;;1.27;0.95;;;18.80;59.20;;;;;;4986181;28;20200;-77
2021/04/21 12:07:46;;;;;;;1.83;1.20;;;18.60;58.30;;;;;;4983443;28;20607;-78
2021/04/21 12:10:13;;;;;;;1.55;1.30;;;18.60;61.40;;;;;;4982460;28;20227;-76
2021/04/21 12:12:38;;;;;;;2.45;1.40;;;18.90;60.80;;;;;;4983663;28;20673;-77
2021/04/21 12:15:08;;;;;;;1.77;1.30;;;19.00;59.80;;;;;;4984218;28;20217;-77
2021/04/21 12:17:34;;;;;;;1.77;1.27;;;18.80;58.90;;;;;;4985290;28;20180;-77
2021/04/21 12:20:01;;;;;;;3.67;2.00;;;18.40;60.20;;;;;;4986240;28;20204;-77
2021/04/21 12:22:42;;;;;;;4.57;1.95;;;17.90;62.50;;;;;;4984144;28;20192;-77
2021/04/21 12:25:09;;;;;;;2.67;1.98;;;17.70;64.50;;;;;;4983797;28;20192;-78
2021/04/21 12:27:35;;;;;;;2.83;2.05;;;17.50;64.40;;;;;;4984516;28;20275;-77
2021/04/21 12:30:12;;;;;;;2.25;2.00;;;17.50;66.10;;;;;;4984299;28;20201;-76
2021/04/21 12:32:38;;;;;;;1.88;1.42;;;17.70;66.10;;;;;;4984061;28;20203;-77
2021/04/21 12:35:06;;;;;;;4.05;1.35;;;17.80;65.50;;;;;;4982926;28;20242;-77
2021/04/21 12:37:31;;;;;;;1.92;1.48;;;18.00;66.10;;;;;;4982434;28;20339;-77
2021/04/21 12:39:57;;;;;;;3.75;1.83;;;18.20;65.60;;;;;;4987411;28;20745;-77
2021/04/21 12:42:23;;;;;;;2.92;1.75;;;18.20;63.50;;;;;;4986418;28;20716;-77
2021/04/21 12:44:48;;;;;;;1.73;1.20;;;18.30;64.70;;;;;;4985142;28;20176;-76
2021/04/21 12:47:14;;;;;;;4.07;1.52;;;18.40;63.60;;;;;;4985971;28;20291;-76
2021/04/21 12:49:47;;;;;;;2.00;1.58;;;18.10;62.50;;;;;;4987661;28;20235;-77
2021/04/21 12:52:18;;;;;;;1.50;1.40;;;18.00;62.90;;;;;;4987707;28;20654;-75
2021/04/21 12:54:48;;;;;;;3.88;2.35;;;18.20;62.70;;;;;;4985965;28;20207;-77
2021/04/21 12:57:18;;;;;;;1.75;1.45;;;18.10;63.70;;;;;;4988662;28;20180;-77
2021/04/21 12:59:43;;;;;;;1.60;1.50;;;18.20;62.40;;;;;;4988224;28;20652;-76
2021/04/21 13:02:16;;;;;;;1.70;1.42;;;18.30;61.80;;;;;;4988136;28;20326;-77
2021/04/21 13:04:46;;;;;;;4.25;1.60;;;18.40;63.60;;;;;;4986953;28;20269;-77
2021/04/21 13:07:22;;;;;;;2.70;1.70;;;18.40;62.30;;;;;;4987012;28;20657;-76
2021/04/21 13:09:49;;;;;;;2.30;1.63;;;18.60;62.10;;;;;;4984938;28;20697;-78
2021/04/21 13:12:22;;;;;;;3.17;1.85;;;18.70;63.40;;;;;;4987118;28;20211;-77
2021/04/21 13:14:51;;;;;;;2.10;1.45;;;18.50;62.00;;;;;;4986118;28;20184;-78
2021/04/21 13:17:17;;;;;;;2.40;1.40;;;18.80;63.10;;;;;;4987454;28;20204;-78
2021/04/21 13:19:56;;;;;;;2.35;1.50;;;19.00;63.40;;;;;;4985820;28;20229;-76
2021/04/21 13:22:27;;;;;;;2.22;1.92;;;19.00;61.10;;;;;;4985512;28;20188;-77
2021/04/21 13:24:54;;;;;;;2.38;1.80;;;18.80;61.60;;;;;;4985798;28;20195;-77